Las Cruces International Airport Las Cruces US
ICAO: KLRU
IATA: LRU
Category: Medium
Scheduled Services: No

Elevation: 4456 ft
TransAlt. 18000 ft.

Airport Communications:
AWOS 3:119.025
ALBUQUERQUE CNTR:128.2
CTAF/UNICOM:122.7

KLRU Zoom In..

Runways:

(A) RW 04 length 7501 ft width 105 ft
---- / hdg 44

(B) RW 08 length 6069 ft width 100 ft
---- / hdg 79

(C) RW 12 length 7506 ft width 100 ft
---- / hdg 124

(D) RW 22 length 7501 ft width 105 ft
---- / hdg 224

(E) RW 26 length 6069 ft width 100 ft
---- / hdg 259

(F) RW 30 length 7506 ft width 100 ft
ILS 109.30 / hdg 304

Location; KLRU
Day. 23 / Time. 15.15 Zulu
* Altimeter: 30.24
* Temperature: 01° c. 33.8°f.
* Wind from: 340° Speed 06 kn.
Dewpoint: -14° c.
Visibility: 10 Statute Miles.
Clouds: Clear (automated report).

KLRU 231515Z AUTO 34006KT 10SM CLR 01/M14 A3024 RMK AO2 T00101138


Wind From 340°
Speed 06 kn.

YouTube Music Video
 
jpsmedia.com for Web Design  worldairports.se 2018   terms of use